Time,TemperatureF,DewpointF,PressureIn,WindDirection,WindDirectionDegrees,WindSpeedMPH,WindSpeedGustMPH,Humidity,HourlyPrecipIn,Conditions,Clouds,dailyrainin,SoftwareType,DateUTC
2013-01-25 00:01:00,8.8,2.5,28.60,WNW,292,0.0,4.0,75,0.00,,,0.00,Weather View 32 v70,2013-01-25 05:01:00,
2013-01-25 00:03:00,8.8,2.2,28.60,WNW,292,0.0,4.0,74,0.00,,,0.00,Weather View 32 v70,2013-01-25 05:03:00,
2013-01-25 00:08:00,8.5,2.2,28.60,WNW,292,0.0,4.0,75,0.00,,,0.00,Weather View 32 v70,2013-01-25 05:08:00,
2013-01-25 00:13:00,8.1,2.4,28.59,WNW,292,0.0,4.0,77,0.00,,,0.00,Weather View 32 v70,2013-01-25 05:13:00,
2013-01-25 00:18:00,7.6,2.2,28.59,WNW,292,0.0,4.0,78,0.00,,,0.00,Weather View 32 v70,2013-01-25 05:18:00,
2013-01-25 00:23:00,7.5,2.1,28.59,WNW,292,0.0,4.0,78,0.00,,,0.00,Weather View 32 v70,2013-01-25 05:23:00,
2013-01-25 00:28:00,7.4,2.0,28.59,WNW,292,0.0,4.0,78,0.00,,,0.00,Weather View 32 v70,2013-01-25 05:28:00,
2013-01-25 00:33:00,7.4,1.7,28.58,WNW,292,0.0,4.0,77,0.00,,,0.00,Weather View 32 v70,2013-01-25 05:33:00,
2013-01-25 00:38:00,7.2,1.5,28.59,WNW,292,0.0,4.0,77,0.00,,,0.00,Weather View 32 v70,2013-01-25 05:38:00,
2013-01-25 00:43:00,7.2,1.5,28.59,WNW,292,0.0,4.0,77,0.00,,,0.00,Weather View 32 v70,2013-01-25 05:43:00,
2013-01-25 00:48:00,7.5,1.8,28.59,NNE,22,1.0,4.0,77,0.00,,,0.00,Weather View 32 v70,2013-01-25 05:48:00,
2013-01-25 00:53:00,7.8,1.8,28.59,NNE,22,2.0,4.0,76,0.00,,,0.00,Weather View 32 v70,2013-01-25 05:53:00,
2013-01-25 00:58:00,8.2,2.2,28.57,NNE,22,1.0,3.0,76,0.00,,,0.00,Weather View 32 v70,2013-01-25 05:58:00,
2013-01-25 01:03:00,8.6,2.0,28.57,NNE,22,2.0,3.0,74,0.00,,,0.00,Weather View 32 v70,2013-01-25 06:03:00,
2013-01-25 01:08:00,8.9,2.0,28.57,NNE,22,2.0,3.0,73,0.00,,,0.00,Weather View 32 v70,2013-01-25 06:08:00,
2013-01-25 01:13:00,8.9,2.6,28.57,NNE,22,1.0,3.0,75,0.00,,,0.00,Weather View 32 v70,2013-01-25 06:13:00,
2013-01-25 01:18:00,8.7,2.7,28.57,NNE,22,0.0,3.0,76,0.00,,,0.00,Weather View 32 v70,2013-01-25 06:18:00,
2013-01-25 01:23:00,8.4,2.7,28.57,NNE,22,0.0,3.0,77,0.00,,,0.00,Weather View 32 v70,2013-01-25 06:23:00,
2013-01-25 01:28:00,8.2,2.5,28.57,NNE,22,0.0,3.0,77,0.00,,,0.00,Weather View 32 v70,2013-01-25 06:28:00,
2013-01-25 01:33:00,8.1,2.7,28.56,NNE,22,0.0,3.0,78,0.00,,,0.00,Weather View 32 v70,2013-01-25 06:33:00,
2013-01-25 01:38:00,7.9,2.8,28.56,NNE,22,0.0,3.0,79,0.00,,,0.00,Weather View 32 v70,2013-01-25 06:38:00,
2013-01-25 01:43:00,7.9,2.8,28.57,NNE,22,0.0,3.0,79,0.00,,,0.00,Weather View 32 v70,2013-01-25 06:43:00,
2013-01-25 01:48:00,7.9,3.0,28.56,NNE,22,0.0,2.0,80,0.00,,,0.00,Weather View 32 v70,2013-01-25 06:48:00,
2013-01-25 01:53:00,8.5,3.9,28.56,NNE,22,0.0,2.0,81,0.00,,,0.00,Weather View 32 v70,2013-01-25 06:53:00,
2013-01-25 01:58:00,8.7,4.3,28.57,NNE,22,1.0,2.0,82,0.00,,,0.00,Weather View 32 v70,2013-01-25 06:58:00,
2013-01-25 02:03:00,9.3,4.4,28.57,NNE,22,0.0,2.0,80,0.00,,,0.00,Weather View 32 v70,2013-01-25 07:03:00,
2013-01-25 02:08:00,9.4,4.2,28.57,South,180,2.0,2.0,79,0.00,,,0.00,Weather View 32 v70,2013-01-25 07:08:00,
2013-01-25 02:13:00,9.8,5.1,28.57,South,180,0.0,2.0,81,0.00,,,0.00,Weather View 32 v70,2013-01-25 07:13:00,
2013-01-25 02:18:00,9.8,5.4,28.56,South,180,1.0,2.0,82,0.00,,,0.00,Weather View 32 v70,2013-01-25 07:18:00,
2013-01-25 02:23:00,9.6,4.7,28.56,South,180,0.0,2.0,80,0.00,,,0.00,Weather View 32 v70,2013-01-25 07:23:00,
2013-01-25 02:28:00,9.4,5.0,28.55,South,180,0.0,2.0,82,0.00,,,0.00,Weather View 32 v70,2013-01-25 07:28:00,
2013-01-25 02:33:00,9.1,4.7,28.55,South,180,0.0,2.0,82,0.00,,,0.00,Weather View 32 v70,2013-01-25 07:33:00,
2013-01-25 02:38:00,8.8,4.7,28.55,South,180,0.0,2.0,83,0.00,,,0.00,Weather View 32 v70,2013-01-25 07:38:00,
2013-01-25 02:43:00,8.8,5.2,28.56,South,180,0.0,2.0,85,0.00,,,0.00,Weather View 32 v70,2013-01-25 07:43:00,
2013-01-25 02:48:00,8.7,5.1,28.55,South,180,2.0,2.0,85,0.00,,,0.00,Weather View 32 v70,2013-01-25 07:48:00,
2013-01-25 02:53:00,8.8,4.7,28.56,South,180,1.0,2.0,83,0.00,,,0.00,Weather View 32 v70,2013-01-25 07:53:00,
2013-01-25 02:58:00,8.8,3.6,28.55,South,180,0.0,2.0,79,0.00,,,0.00,Weather View 32 v70,2013-01-25 07:58:00,
2013-01-25 03:03:00,8.8,2.8,28.55,South,180,0.0,2.0,76,0.00,,,0.00,Weather View 32 v70,2013-01-25 08:03:00,
2013-01-25 03:08:00,9.2,3.7,28.55,South,180,2.0,2.0,78,0.00,,,0.00,Weather View 32 v70,2013-01-25 08:08:00,
2013-01-25 03:13:00,9.3,4.9,28.55,South,180,1.0,2.0,82,0.00,,,0.00,Weather View 32 v70,2013-01-25 08:13:00,
2013-01-25 03:18:00,9.5,5.4,28.55,South,180,2.0,2.0,83,0.00,,,0.00,Weather View 32 v70,2013-01-25 08:18:00,
2013-01-25 03:23:00,9.6,6.0,28.55,South,180,0.0,2.0,85,0.00,,,0.00,Weather View 32 v70,2013-01-25 08:23:00,
2013-01-25 03:28:00,9.6,6.0,28.54,South,180,0.0,2.0,85,0.00,,,0.00,Weather View 32 v70,2013-01-25 08:28:00,
2013-01-25 03:33:00,9.4,5.6,28.54,South,180,0.0,2.0,84,0.00,,,0.00,Weather View 32 v70,2013-01-25 08:33:00,
2013-01-25 03:38:00,9.3,5.5,28.54,South,180,0.0,2.0,84,0.00,,,0.00,Weather View 32 v70,2013-01-25 08:38:00,
2013-01-25 03:43:00,9.3,5.5,28.55,South,180,0.0,2.0,84,0.00,,,0.00,Weather View 32 v70,2013-01-25 08:43:00,
2013-01-25 03:48:00,9.4,5.6,28.54,South,180,0.0,2.0,84,0.00,,,0.00,Weather View 32 v70,2013-01-25 08:48:00,
2013-01-25 03:53:00,9.6,5.5,28.54,South,180,0.0,2.0,83,0.00,,,0.00,Weather View 32 v70,2013-01-25 08:53:00,
2013-01-25 03:58:00,9.6,5.5,28.55,South,180,0.0,2.0,83,0.00,,,0.00,Weather View 32 v70,2013-01-25 08:58:00,
2013-01-25 04:03:00,9.6,5.7,28.54,WNW,292,2.0,2.0,84,0.00,,,0.00,Weather View 32 v70,2013-01-25 09:03:00,
2013-01-25 04:08:00,9.7,5.8,28.53,WNW,292,2.0,2.0,84,0.00,,,0.00,Weather View 32 v70,2013-01-25 09:08:00,
2013-01-25 04:13:00,9.7,5.8,28.53,WNW,292,0.0,2.0,84,0.00,,,0.00,Weather View 32 v70,2013-01-25 09:13:00,
2013-01-25 04:18:00,9.7,5.8,28.54,WNW,292,1.0,2.0,84,0.00,,,0.00,Weather View 32 v70,2013-01-25 09:18:00,
2013-01-25 04:23:00,9.6,6.0,28.54,WNW,292,0.0,2.0,85,0.00,,,0.00,Weather View 32 v70,2013-01-25 09:23:00,
2013-01-25 04:28:00,9.5,5.6,28.53,WNW,292,0.0,2.0,84,0.00,,,0.00,Weather View 32 v70,2013-01-25 09:28:00,
2013-01-25 04:33:00,9.5,5.4,28.53,WNW,292,1.0,2.0,83,0.00,,,0.00,Weather View 32 v70,2013-01-25 09:33:00,
2013-01-25 04:38:00,9.6,5.5,28.54,WNW,292,0.0,2.0,83,0.00,,,0.00,Weather View 32 v70,2013-01-25 09:38:00,
2013-01-25 04:44:00,9.7,5.6,28.53,WNW,292,0.0,2.0,83,0.00,,,0.00,Weather View 32 v70,2013-01-25 09:44:00,
2013-01-25 04:49:00,9.7,5.6,28.53,WNW,292,0.0,2.0,83,0.00,,,0.00,Weather View 32 v70,2013-01-25 09:49:00,
2013-01-25 04:54:00,9.9,5.8,28.53,WNW,292,0.0,2.0,83,0.00,,,0.00,Weather View 32 v70,2013-01-25 09:54:00,
2013-01-25 04:59:00,10.6,6.7,28.52,WNW,292,1.0,2.0,84,0.00,,,0.00,Weather View 32 v70,2013-01-25 09:59:00,
2013-01-25 05:04:00,10.9,6.8,28.52,WNW,292,0.0,2.0,83,0.00,,,0.00,Weather View 32 v70,2013-01-25 10:04:00,
2013-01-25 05:09:00,11.2,6.8,28.52,WNW,292,0.0,2.0,82,0.00,,,0.00,Weather View 32 v70,2013-01-25 10:09:00,
2013-01-25 05:14:00,11.2,6.8,28.52,WNW,292,0.0,2.0,82,0.00,,,0.00,Weather View 32 v70,2013-01-25 10:14:00,
2013-01-25 05:19:00,11.2,6.8,28.52,WNW,292,1.0,2.0,82,0.00,,,0.00,Weather View 32 v70,2013-01-25 10:19:00,
2013-01-25 05:24:00,11.1,7.5,28.52,WNW,292,2.0,2.0,85,0.00,,,0.00,Weather View 32 v70,2013-01-25 10:24:00,
2013-01-25 05:29:00,11.1,7.7,28.52,WNW,292,2.0,2.0,86,0.00,,,0.00,Weather View 32 v70,2013-01-25 10:29:00,
2013-01-25 05:34:00,11.2,6.8,28.53,WNW,292,1.0,2.0,82,0.00,,,0.00,Weather View 32 v70,2013-01-25 10:34:00,
2013-01-25 05:39:00,11.3,6.9,28.52,WNW,292,0.0,2.0,82,0.00,,,0.00,Weather View 32 v70,2013-01-25 10:39:00,
2013-01-25 05:44:00,11.4,7.2,28.52,SW,225,2.0,2.0,83,0.00,,,0.00,Weather View 32 v70,2013-01-25 10:44:00,
2013-01-25 05:49:00,11.4,7.5,28.52,SW,225,2.0,3.0,84,0.00,,,0.00,Weather View 32 v70,2013-01-25 10:49:00,
2013-01-25 05:54:00,11.4,7.8,28.50,SSW,202,4.0,4.0,85,0.00,,,0.00,Weather View 32 v70,2013-01-25 10:54:00,
2013-01-25 05:59:00,11.3,7.7,28.50,SW,225,2.0,4.0,85,0.00,,,0.00,Weather View 32 v70,2013-01-25 10:59:00,
2013-01-25 06:04:00,11.3,6.9,28.50,SW,225,2.0,4.0,82,0.00,,,0.00,Weather View 32 v70,2013-01-25 11:04:00,
2013-01-25 06:09:00,11.2,7.1,28.50,SW,225,2.0,4.0,83,0.00,,,0.00,Weather View 32 v70,2013-01-25 11:09:00,
2013-01-25 06:14:00,10.9,7.3,28.50,SW,225,2.0,4.0,85,0.00,,,0.00,Weather View 32 v70,2013-01-25 11:14:00,
2013-01-25 06:19:00,10.9,7.3,28.50,SW,225,2.0,4.0,85,0.00,,,0.00,Weather View 32 v70,2013-01-25 11:19:00,
2013-01-25 06:24:00,10.9,7.5,28.50,SSW,202,2.0,4.0,86,0.00,,,0.00,Weather View 32 v70,2013-01-25 11:24:00,
2013-01-25 06:29:00,11.2,8.3,28.51,SW,225,3.0,4.0,88,0.00,,,0.00,Weather View 32 v70,2013-01-25 11:29:00,
2013-01-25 06:34:00,11.4,8.5,28.50,SW,225,2.0,4.0,88,0.00,,,0.00,Weather View 32 v70,2013-01-25 11:34:00,
2013-01-25 06:39:00,11.6,8.7,28.50,SW,225,4.0,4.0,88,0.00,,,0.00,Weather View 32 v70,2013-01-25 11:39:00,
2013-01-25 06:44:00,11.7,8.8,28.50,SW,225,2.0,4.0,88,0.00,,,0.00,Weather View 32 v70,2013-01-25 11:44:00,
2013-01-25 06:49:00,11.8,8.4,28.50,SW,225,1.0,4.0,86,0.00,,,0.00,Weather View 32 v70,2013-01-25 11:49:00,
2013-01-25 06:54:00,11.9,8.3,28.50,SW,225,2.0,4.0,85,0.00,,,0.00,Weather View 32 v70,2013-01-25 11:54:00,
2013-01-25 06:59:00,12.1,7.9,28.50,SW,225,4.0,4.0,83,0.00,,,0.00,Weather View 32 v70,2013-01-25 11:59:00,
2013-01-25 07:04:00,12.3,8.1,28.50,SW,225,2.0,4.0,83,0.00,,,0.00,Weather View 32 v70,2013-01-25 12:04:00,
2013-01-25 07:09:00,12.4,8.0,28.50,SW,225,2.0,4.0,82,0.00,,,0.00,Weather View 32 v70,2013-01-25 12:09:00,
2013-01-25 07:14:00,12.4,8.0,28.50,SW,225,3.0,4.0,82,0.00,,,0.00,Weather View 32 v70,2013-01-25 12:14:00,
2013-01-25 07:19:00,12.5,7.8,28.50,SW,225,4.0,4.0,81,0.00,,,0.00,Weather View 32 v70,2013-01-25 12:19:00,
2013-01-25 07:24:00,12.5,7.5,28.49,SW,225,2.0,4.0,80,0.00,,,0.00,Weather View 32 v70,2013-01-25 12:24:00,
2013-01-25 07:29:00,12.7,6.9,28.49,SW,225,2.0,4.0,77,0.00,,,0.00,Weather View 32 v70,2013-01-25 12:29:00,
2013-01-25 07:34:00,12.7,6.6,28.49,SW,225,2.0,4.0,76,0.00,,,0.00,Weather View 32 v70,2013-01-25 12:34:00,
2013-01-25 07:39:00,12.7,7.4,28.49,SW,225,2.0,4.0,79,0.00,,,0.00,Weather View 32 v70,2013-01-25 12:39:00,
2013-01-25 07:44:00,12.9,7.9,28.49,SW,225,2.0,4.0,80,0.00,,,0.00,Weather View 32 v70,2013-01-25 12:44:00,
2013-01-25 07:49:00,13.1,7.3,28.49,SW,225,2.0,4.0,77,0.00,,,0.00,Weather View 32 v70,2013-01-25 12:49:00,
2013-01-25 07:54:00,13.2,7.6,28.48,SW,225,3.0,4.0,78,0.00,,,0.00,Weather View 32 v70,2013-01-25 12:54:00,
2013-01-25 07:59:00,13.2,7.3,28.48,SW,225,1.0,4.0,77,0.00,,,0.00,Weather View 32 v70,2013-01-25 12:59:00,
2013-01-25 08:04:00,13.3,7.4,28.48,SW,225,2.0,4.0,77,0.00,,,0.00,Weather View 32 v70,2013-01-25 13:04:00,
2013-01-25 08:09:00,13.3,7.7,28.46,South,180,2.0,4.0,78,0.00,,,0.00,Weather View 32 v70,2013-01-25 13:09:00,
2013-01-25 08:14:00,13.4,7.8,28.46,South,180,3.0,4.0,78,0.00,,,0.00,Weather View 32 v70,2013-01-25 13:14:00,
2013-01-25 08:19:00,13.4,8.4,28.46,South,180,2.0,4.0,80,0.00,,,0.00,Weather View 32 v70,2013-01-25 13:19:00,
2013-01-25 08:24:00,13.5,8.2,28.45,South,180,1.0,4.0,79,0.00,,,0.00,Weather View 32 v70,2013-01-25 13:24:00,
2013-01-25 08:29:00,13.6,8.6,28.45,South,180,2.0,4.0,80,0.00,,,0.00,Weather View 32 v70,2013-01-25 13:29:00,
2013-01-25 08:34:00,13.9,8.6,28.44,South,180,2.0,5.0,79,0.00,,,0.00,Weather View 32 v70,2013-01-25 13:34:00,
2013-01-25 08:39:00,14.4,7.6,28.46,SW,225,4.0,8.0,74,0.00,,,0.00,Weather View 32 v70,2013-01-25 13:39:00,
2013-01-25 08:44:00,14.5,8.0,28.46,SW,225,3.0,9.0,75,0.00,,,0.00,Weather View 32 v70,2013-01-25 13:44:00,
2013-01-25 08:49:00,14.7,7.9,28.46,SW,225,5.0,9.0,74,0.00,,,0.00,Weather View 32 v70,2013-01-25 13:49:00,
2013-01-25 08:54:00,14.8,8.0,28.46,SW,225,7.0,9.0,74,0.00,,,0.00,Weather View 32 v70,2013-01-25 13:54:00,
2013-01-25 08:59:00,14.8,8.0,28.46,SW,225,4.0,10.0,74,0.00,,,0.00,Weather View 32 v70,2013-01-25 13:59:00,
2013-01-25 09:04:00,14.8,7.4,28.46,SW,225,4.0,10.0,72,0.00,,,0.00,Weather View 32 v70,2013-01-25 14:04:00,
2013-01-25 09:09:00,15.1,8.3,28.46,SW,225,7.0,10.0,74,0.00,,,0.00,Weather View 32 v70,2013-01-25 14:09:00,
2013-01-25 09:14:00,15.4,8.3,28.45,SW,225,2.0,10.0,73,0.00,,,0.00,Weather View 32 v70,2013-01-25 14:14:00,
2013-01-25 09:19:00,15.6,7.9,28.43,SSW,202,7.0,10.0,71,0.00,,,0.00,Weather View 32 v70,2013-01-25 14:19:00,
2013-01-25 09:24:00,15.9,7.5,28.44,SW,225,8.0,11.0,69,0.00,,,0.00,Weather View 32 v70,2013-01-25 14:24:00,
2013-01-25 09:29:00,16.2,7.8,28.44,SW,225,8.0,12.0,69,0.00,,,0.00,Weather View 32 v70,2013-01-25 14:29:00,
2013-01-25 09:34:00,16.3,7.9,28.44,South,180,7.0,12.0,69,0.00,,,0.00,Weather View 32 v70,2013-01-25 14:34:00,
2013-01-25 09:39:00,16.4,8.3,28.44,SW,225,8.0,12.0,70,0.00,,,0.00,Weather View 32 v70,2013-01-25 14:39:00,
2013-01-25 09:44:00,16.5,7.5,28.43,SW,225,6.0,12.0,67,0.00,,,0.00,Weather View 32 v70,2013-01-25 14:44:00,
2013-01-25 09:50:00,16.7,8.0,28.42,SSW,202,6.0,13.0,68,0.00,,,0.00,Weather View 32 v70,2013-01-25 14:50:00,
2013-01-25 09:55:00,16.9,7.2,28.41,SSW,202,8.0,13.0,65,0.00,,,0.00,Weather View 32 v70,2013-01-25 14:55:00,
2013-01-25 10:00:00,17.2,7.8,28.41,SW,225,9.0,13.0,66,0.00,,,0.00,Weather View 32 v70,2013-01-25 15:00:00,
2013-01-25 10:05:00,17.3,7.2,28.41,SW,225,4.0,13.0,64,0.00,,,0.00,Weather View 32 v70,2013-01-25 15:05:00,
2013-01-25 10:10:00,17.5,6.7,28.41,SW,225,10.0,13.0,62,0.00,,,0.00,Weather View 32 v70,2013-01-25 15:10:00,
2013-01-25 10:15:00,17.8,6.6,28.41,SW,225,13.0,15.0,61,0.00,,,0.00,Weather View 32 v70,2013-01-25 15:15:00,
2013-01-25 10:20:00,17.8,6.3,28.40,SW,225,9.0,15.0,60,0.00,,,0.00,Weather View 32 v70,2013-01-25 15:20:00,
2013-01-25 10:25:00,17.9,6.4,28.40,SSW,202,8.0,15.0,60,0.00,,,0.00,Weather View 32 v70,2013-01-25 15:25:00,
2013-01-25 10:30:00,17.9,5.6,28.40,SSW,202,9.0,15.0,58,0.00,,,0.00,Weather View 32 v70,2013-01-25 15:30:00,
2013-01-25 10:35:00,17.9,5.6,28.40,SW,225,12.0,16.0,58,0.00,,,0.00,Weather View 32 v70,2013-01-25 15:35:00,
2013-01-25 10:40:00,17.9,5.6,28.39,SW,225,9.0,16.0,58,0.00,,,0.00,Weather View 32 v70,2013-01-25 15:40:00,
2013-01-25 10:45:00,17.9,5.6,28.39,SW,225,5.0,16.0,58,0.00,,,0.00,Weather View 32 v70,2013-01-25 15:45:00,
2013-01-25 10:50:00,18.1,5.8,28.39,SSW,202,9.0,16.0,58,0.00,,,0.00,Weather View 32 v70,2013-01-25 15:50:00,
2013-01-25 10:55:00,18.3,6.4,28.38,SSW,202,6.0,16.0,59,0.00,,,0.00,Weather View 32 v70,2013-01-25 15:55:00,
2013-01-25 11:00:00,18.4,6.5,28.39,SW,225,10.0,16.0,59,0.00,,,0.00,Weather View 32 v70,2013-01-25 16:00:00,
2013-01-25 11:05:00,18.3,6.0,28.39,SSW,202,9.0,16.0,58,0.00,,,0.00,Weather View 32 v70,2013-01-25 16:05:00,
2013-01-25 11:10:00,18.3,5.6,28.37,SW,225,6.0,18.0,57,0.00,,,0.00,Weather View 32 v70,2013-01-25 16:10:00,
2013-01-25 11:15:00,18.4,6.5,28.37,SSW,202,9.0,18.0,59,0.00,,,0.00,Weather View 32 v70,2013-01-25 16:15:00,
2013-01-25 11:20:00,18.5,6.2,28.36,South,180,7.0,18.0,58,0.00,,,0.00,Weather View 32 v70,2013-01-25 16:20:00,
2013-01-25 11:25:00,18.5,6.2,28.37,SW,225,12.0,18.0,58,0.00,,,0.00,Weather View 32 v70,2013-01-25 16:25:00,
2013-01-25 11:30:00,18.5,5.8,28.35,SSW,202,9.0,18.0,57,0.00,,,0.00,Weather View 32 v70,2013-01-25 16:30:00,
2013-01-25 11:35:00,18.7,5.6,28.35,SSW,202,9.0,18.0,56,0.00,,,0.00,Weather View 32 v70,2013-01-25 16:35:00,
2013-01-25 11:40:00,18.8,6.1,28.35,SW,225,9.0,18.0,57,0.00,,,0.00,Weather View 32 v70,2013-01-25 16:40:00,
2013-01-25 11:45:00,18.8,5.3,28.35,SW,225,10.0,18.0,55,0.00,,,0.00,Weather View 32 v70,2013-01-25 16:45:00,
2013-01-25 11:50:00,18.9,5.8,28.34,SW,225,13.0,18.0,56,0.00,,,0.00,Weather View 32 v70,2013-01-25 16:50:00,
2013-01-25 11:55:00,18.9,5.4,28.34,SW,225,12.0,18.0,55,0.00,,,0.00,Weather View 32 v70,2013-01-25 16:55:00,
2013-01-25 12:00:00,18.9,5.0,28.34,SSW,202,13.0,18.0,54,0.00,,,0.00,Weather View 32 v70,2013-01-25 17:00:00,
2013-01-25 12:05:00,19.1,5.2,28.33,SW,225,6.0,18.0,54,0.00,,,0.00,Weather View 32 v70,2013-01-25 17:05:00,
2013-01-25 12:10:00,19.3,5.4,28.33,SSW,202,16.0,17.0,54,0.00,,,0.00,Weather View 32 v70,2013-01-25 17:10:00,
2013-01-25 12:15:00,19.4,5.5,28.32,SW,225,9.0,17.0,54,0.00,,,0.00,Weather View 32 v70,2013-01-25 17:15:00,
2013-01-25 12:20:00,19.5,5.1,28.33,SSW,202,10.0,17.0,53,0.00,,,0.00,Weather View 32 v70,2013-01-25 17:20:00,
2013-01-25 12:26:00,19.5,5.1,28.32,SW,225,12.0,17.0,53,0.00,,,0.00,Weather View 32 v70,2013-01-25 17:26:00,
2013-01-25 12:31:00,19.6,5.2,28.31,SSW,202,5.0,17.0,53,0.00,,,0.00,Weather View 32 v70,2013-01-25 17:31:00,
2013-01-25 12:36:00,19.5,6.0,28.30,WSW,247,12.0,17.0,55,0.00,,,0.00,Weather View 32 v70,2013-01-25 17:36:00,
2013-01-25 12:41:00,18.9,8.4,28.30,SW,225,7.0,17.0,63,0.00,,,0.00,Weather View 32 v70,2013-01-25 17:41:00,
2013-01-25 12:46:00,18.9,9.8,28.30,SSW,202,6.0,17.0,67,0.00,,,0.00,Weather View 32 v70,2013-01-25 17:46:00,
2013-01-25 12:51:00,18.1,12.1,28.30,SSW,202,12.0,17.0,77,0.00,,,0.00,Weather View 32 v70,2013-01-25 17:51:00,
2013-01-25 12:56:00,17.9,11.9,28.27,SSW,202,9.0,17.0,77,0.00,,,0.00,Weather View 32 v70,2013-01-25 17:56:00,
2013-01-25 13:01:00,17.9,11.6,28.28,SW,225,8.0,17.0,76,0.00,,,0.00,Weather View 32 v70,2013-01-25 18:01:00,
2013-01-25 13:06:00,17.9,12.2,28.27,WSW,247,7.0,17.0,78,0.00,,,0.00,Weather View 32 v70,2013-01-25 18:06:00,
2013-01-25 13:11:00,18.1,12.4,28.27,WSW,247,6.0,17.0,78,0.00,,,0.00,Weather View 32 v70,2013-01-25 18:11:00,
2013-01-25 13:16:00,18.5,12.5,28.26,SW,225,6.0,17.0,77,0.00,,,0.00,Weather View 32 v70,2013-01-25 18:16:00,
2013-01-25 13:21:00,18.7,11.8,28.27,SW,225,7.0,17.0,74,0.00,,,0.00,Weather View 32 v70,2013-01-25 18:21:00,
2013-01-25 13:26:00,18.8,12.5,28.26,SW,225,6.0,17.0,76,0.00,,,0.00,Weather View 32 v70,2013-01-25 18:26:00,
2013-01-25 13:31:00,18.8,13.1,28.26,SSW,202,6.0,17.0,78,0.00,,,0.00,Weather View 32 v70,2013-01-25 18:31:00,
2013-01-25 13:36:00,18.7,13.3,28.25,SW,225,9.0,17.0,79,0.00,,,0.00,Weather View 32 v70,2013-01-25 18:36:00,
2013-01-25 13:41:00,18.5,13.1,28.24,SW,225,8.0,17.0,79,0.00,,,0.00,Weather View 32 v70,2013-01-25 18:41:00,
2013-01-25 13:46:00,18.6,13.5,28.24,South,180,6.0,17.0,80,0.00,,,0.00,Weather View 32 v70,2013-01-25 18:46:00,
2013-01-25 13:51:00,18.5,13.1,28.23,SW,225,8.0,17.0,79,0.00,,,0.00,Weather View 32 v70,2013-01-25 18:51:00,
2013-01-25 13:56:00,18.6,13.2,28.23,SW,225,9.0,15.0,79,0.00,,,0.00,Weather View 32 v70,2013-01-25 18:56:00,
2013-01-25 14:01:00,18.6,13.2,28.22,SW,225,9.0,15.0,79,0.00,,,0.00,Weather View 32 v70,2013-01-25 19:01:00,
2013-01-25 14:06:00,18.4,12.7,28.22,SSW,202,11.0,17.0,78,0.00,,,0.00,Weather View 32 v70,2013-01-25 19:06:00,
2013-01-25 14:11:00,18.2,13.1,28.22,South,180,10.0,17.0,80,0.00,,,0.00,Weather View 32 v70,2013-01-25 19:11:00,
2013-01-25 14:16:00,18.2,13.4,28.22,SW,225,7.0,17.0,81,0.00,,,0.00,Weather View 32 v70,2013-01-25 19:16:00,
2013-01-25 14:21:00,18.4,13.6,28.22,SSW,202,6.0,17.0,81,0.00,,,0.00,Weather View 32 v70,2013-01-25 19:21:00,
2013-01-25 14:26:00,18.8,13.7,28.21,SSW,202,12.0,17.0,80,0.00,,,0.00,Weather View 32 v70,2013-01-25 19:26:00,
2013-01-25 14:31:00,19.0,13.9,28.21,SW,225,10.0,17.0,80,0.00,,,0.00,Weather View 32 v70,2013-01-25 19:31:00,
2013-01-25 14:36:00,18.9,13.5,28.21,SSW,202,10.0,17.0,79,0.00,,,0.00,Weather View 32 v70,2013-01-25 19:36:00,
2013-01-25 14:41:00,18.8,13.4,28.21,SSW,202,9.0,17.0,79,0.00,,,0.00,Weather View 32 v70,2013-01-25 19:41:00,
2013-01-25 14:46:00,18.9,14.0,28.21,SSW,202,11.0,17.0,81,0.00,,,0.00,Weather View 32 v70,2013-01-25 19:46:00,
2013-01-25 14:51:00,18.7,14.1,28.20,SSW,202,7.0,17.0,82,0.00,,,0.00,Weather View 32 v70,2013-01-25 19:51:00,
2013-01-25 14:56:00,18.6,14.3,28.20,SW,225,7.0,17.0,83,0.00,,,0.00,Weather View 32 v70,2013-01-25 19:56:00,
2013-01-25 15:01:00,18.6,14.6,28.20,SSW,202,6.0,17.0,84,0.00,,,0.00,Weather View 32 v70,2013-01-25 20:01:00,
2013-01-25 15:06:00,18.6,14.3,28.20,SSW,202,8.0,17.0,83,0.00,,,0.00,Weather View 32 v70,2013-01-25 20:06:00,
2013-01-25 15:11:00,18.5,14.2,28.19,South,180,6.0,17.0,83,0.00,,,0.00,Weather View 32 v70,2013-01-25 20:11:00,
2013-01-25 15:16:00,18.6,14.3,28.20,SW,225,8.0,17.0,83,0.00,,,0.00,Weather View 32 v70,2013-01-25 20:16:00,
2013-01-25 15:22:00,19.1,15.1,28.20,SW,225,9.0,17.0,84,0.00,,,0.00,Weather View 32 v70,2013-01-25 20:22:00,
2013-01-25 15:27:00,19.0,14.7,28.19,SSW,202,8.0,17.0,83,0.00,,,0.00,Weather View 32 v70,2013-01-25 20:27:00,
2013-01-25 15:32:00,18.9,15.1,28.19,SW,225,10.0,17.0,85,0.00,,,0.00,Weather View 32 v70,2013-01-25 20:32:00,
2013-01-25 15:37:00,18.9,15.9,28.19,SW,225,4.0,17.0,88,0.00,,,0.00,Weather View 32 v70,2013-01-25 20:37:00,
2013-01-25 15:42:00,18.9,15.9,28.19,South,180,6.0,17.0,88,0.00,,,0.00,Weather View 32 v70,2013-01-25 20:42:00,
2013-01-25 15:47:00,19.1,16.4,28.19,South,180,10.0,17.0,89,0.00,,,0.00,Weather View 32 v70,2013-01-25 20:47:00,
2013-01-25 15:52:00,19.2,16.5,28.18,South,180,11.0,17.0,89,0.00,,,0.00,Weather View 32 v70,2013-01-25 20:52:00,
2013-01-25 15:57:00,19.0,16.0,28.18,SSW,202,10.0,17.0,88,0.00,,,0.00,Weather View 32 v70,2013-01-25 20:57:00,
2013-01-25 16:02:00,18.9,16.5,28.18,South,180,9.0,17.0,90,0.00,,,0.00,Weather View 32 v70,2013-01-25 21:02:00,
2013-01-25 16:07:00,18.9,16.5,28.18,South,180,10.0,17.0,90,0.00,,,0.00,Weather View 32 v70,2013-01-25 21:07:00,
2013-01-25 16:12:00,18.8,16.6,28.18,SSW,202,8.0,17.0,91,0.00,,,0.00,Weather View 32 v70,2013-01-25 21:12:00,
2013-01-25 16:17:00,18.8,16.6,28.18,SSW,202,11.0,17.0,91,0.00,,,0.00,Weather View 32 v70,2013-01-25 21:17:00,
2013-01-25 16:22:00,18.9,16.5,28.17,SSW,202,7.0,17.0,90,0.00,,,0.00,Weather View 32 v70,2013-01-25 21:22:00,
2013-01-25 16:27:00,18.9,16.5,28.16,South,180,10.0,17.0,90,0.00,,,0.00,Weather View 32 v70,2013-01-25 21:27:00,
2013-01-25 16:32:00,18.9,16.5,28.16,SSW,202,9.0,16.0,90,0.00,,,0.00,Weather View 32 v70,2013-01-25 21:32:00,
2013-01-25 16:37:00,18.9,16.2,28.16,SSW,202,5.0,14.0,89,0.00,,,0.00,Weather View 32 v70,2013-01-25 21:37:00,
2013-01-25 16:42:00,18.9,16.5,28.16,SSW,202,7.0,14.0,90,0.00,,,0.00,Weather View 32 v70,2013-01-25 21:42:00,
2013-01-25 16:47:00,18.8,16.1,28.16,SW,225,9.0,14.0,89,0.00,,,0.00,Weather View 32 v70,2013-01-25 21:47:00,
2013-01-25 16:52:00,18.8,16.1,28.16,SW,225,6.0,14.0,89,0.00,,,0.00,Weather View 32 v70,2013-01-25 21:52:00,
2013-01-25 16:57:00,18.8,16.1,28.16,SSW,202,6.0,14.0,89,0.00,,,0.00,Weather View 32 v70,2013-01-25 21:57:00,
2013-01-25 17:02:00,18.8,16.1,28.16,SSW,202,6.0,14.0,89,0.00,,,0.00,Weather View 32 v70,2013-01-25 22:02:00,
2013-01-25 17:07:00,18.7,16.0,28.16,South,180,4.0,14.0,89,0.00,,,0.00,Weather View 32 v70,2013-01-25 22:07:00,
2013-01-25 17:12:00,18.7,16.3,28.16,South,180,8.0,14.0,90,0.00,,,0.00,Weather View 32 v70,2013-01-25 22:12:00,
2013-01-25 17:17:00,18.7,16.3,28.15,South,180,6.0,14.0,90,0.00,,,0.00,Weather View 32 v70,2013-01-25 22:17:00,
2013-01-25 17:22:00,18.7,16.3,28.16,South,180,7.0,13.0,90,0.00,,,0.00,Weather View 32 v70,2013-01-25 22:22:00,
2013-01-25 17:27:00,18.7,16.0,28.15,SSW,202,6.0,13.0,89,0.00,,,0.00,Weather View 32 v70,2013-01-25 22:27:00,
2013-01-25 17:32:00,18.6,15.9,28.15,South,180,7.0,13.0,89,0.00,,,0.00,Weather View 32 v70,2013-01-25 22:32:00,
2013-01-25 17:37:00,18.6,15.9,28.14,SSW,202,4.0,13.0,89,0.00,,,0.00,Weather View 32 v70,2013-01-25 22:37:00,
2013-01-25 17:42:00,18.6,15.9,28.14,South,180,4.0,13.0,89,0.00,,,0.00,Weather View 32 v70,2013-01-25 22:42:00,
2013-01-25 17:47:00,18.6,15.9,28.14,SSW,202,5.0,12.0,89,0.00,,,0.00,Weather View 32 v70,2013-01-25 22:47:00,
2013-01-25 17:53:00,18.4,15.7,28.14,SSW,202,4.0,12.0,89,0.00,,,0.00,Weather View 32 v70,2013-01-25 22:53:00,
2013-01-25 17:58:00,18.2,15.5,28.14,SSW,202,4.0,12.0,89,0.00,,,0.00,Weather View 32 v70,2013-01-25 22:58:00,
2013-01-25 18:03:00,17.9,15.2,28.14,SSW,202,4.0,12.0,89,0.00,,,0.00,Weather View 32 v70,2013-01-25 23:03:00,
2013-01-25 18:08:00,17.9,15.5,28.14,SSW,202,4.0,12.0,90,0.00,,,0.00,Weather View 32 v70,2013-01-25 23:08:00,
2013-01-25 18:13:00,18.1,15.7,28.14,SSW,202,6.0,12.0,90,0.00,,,0.00,Weather View 32 v70,2013-01-25 23:13:00,
2013-01-25 18:18:00,18.1,15.9,28.14,South,180,7.0,12.0,91,0.00,,,0.00,Weather View 32 v70,2013-01-25 23:18:00,
2013-01-25 18:23:00,18.3,16.1,28.14,South,180,6.0,12.0,91,0.00,,,0.00,Weather View 32 v70,2013-01-25 23:23:00,
2013-01-25 18:28:00,18.3,16.1,28.14,SSW,202,4.0,11.0,91,0.00,,,0.00,Weather View 32 v70,2013-01-25 23:28:00,
2013-01-25 18:33:00,18.3,16.1,28.14,SSW,202,5.0,11.0,91,0.00,,,0.00,Weather View 32 v70,2013-01-25 23:33:00,
2013-01-25 18:38:00,18.2,16.0,28.13,SSW,202,8.0,9.0,91,0.00,,,0.00,Weather View 32 v70,2013-01-25 23:38:00,
2013-01-25 18:43:00,18.1,15.9,28.13,SSW,202,9.0,11.0,91,0.00,,,0.00,Weather View 32 v70,2013-01-25 23:43:00,
2013-01-25 18:48:00,18.1,15.9,28.13,SSW,202,6.0,11.0,91,0.00,,,0.00,Weather View 32 v70,2013-01-25 23:48:00,
2013-01-25 18:53:00,18.2,16.0,28.13,South,180,7.0,11.0,91,0.00,,,0.00,Weather View 32 v70,2013-01-25 23:53:00,
2013-01-25 18:58:00,18.3,16.1,28.13,SW,225,8.0,11.0,91,0.00,,,0.00,Weather View 32 v70,2013-01-25 23:58:00,
2013-01-25 19:03:00,18.4,16.2,28.13,SSW,202,5.0,11.0,91,0.00,,,0.00,Weather View 32 v70,2013-01-26 00:03:00,
2013-01-25 19:08:00,18.5,16.3,28.13,SW,225,5.0,11.0,91,0.00,,,0.00,Weather View 32 v70,2013-01-26 00:08:00,
2013-01-25 19:13:00,18.6,16.4,28.13,SW,225,4.0,11.0,91,0.00,,,0.00,Weather View 32 v70,2013-01-26 00:13:00,
2013-01-25 19:18:00,18.6,16.4,28.13,SSW,202,4.0,11.0,91,0.00,,,0.00,Weather View 32 v70,2013-01-26 00:18:00,
2013-01-25 19:23:00,18.7,16.5,28.13,SW,225,6.0,11.0,91,0.00,,,0.00,Weather View 32 v70,2013-01-26 00:23:00,
2013-01-25 19:28:00,18.7,16.5,28.13,SSW,202,5.0,11.0,91,0.00,,,0.00,Weather View 32 v70,2013-01-26 00:28:00,
2013-01-25 19:33:00,18.8,16.6,28.13,South,180,2.0,11.0,91,0.00,,,0.00,Weather View 32 v70,2013-01-26 00:33:00,
2013-01-25 19:38:00,18.8,16.6,28.13,South,180,4.0,11.0,91,0.00,,,0.00,Weather View 32 v70,2013-01-26 00:38:00,
2013-01-25 19:43:00,18.9,16.7,28.13,South,180,2.0,9.0,91,0.00,,,0.00,Weather View 32 v70,2013-01-26 00:43:00,
2013-01-25 19:48:00,18.9,16.7,28.13,SSW,202,2.0,9.0,91,0.00,,,0.00,Weather View 32 v70,2013-01-26 00:48:00,
2013-01-25 19:53:00,18.9,16.7,28.13,South,180,2.0,9.0,91,0.00,,,0.00,Weather View 32 v70,2013-01-26 00:53:00,
2013-01-25 19:58:00,18.9,16.7,28.13,SW,225,2.0,8.0,91,0.00,,,0.00,Weather View 32 v70,2013-01-26 00:58:00,
2013-01-25 20:03:00,18.9,16.7,28.13,South,180,1.0,8.0,91,0.00,,,0.00,Weather View 32 v70,2013-01-26 01:03:00,
2013-01-25 20:08:00,19.0,16.8,28.13,SE,135,1.0,7.0,91,0.00,,,0.00,Weather View 32 v70,2013-01-26 01:08:00,
2013-01-25 20:13:00,19.1,16.9,28.13,SE,135,2.0,7.0,91,0.00,,,0.00,Weather View 32 v70,2013-01-26 01:13:00,
2013-01-25 20:18:00,19.1,16.9,28.13,SE,135,1.0,7.0,91,0.00,,,0.00,Weather View 32 v70,2013-01-26 01:18:00,
2013-01-25 20:23:00,19.2,16.8,28.13,East,90,0.0,6.0,90,0.00,,,0.00,Weather View 32 v70,2013-01-26 01:23:00,
2013-01-25 20:29:00,19.2,16.8,28.13,East,90,1.0,6.0,90,0.00,,,0.00,Weather View 32 v70,2013-01-26 01:29:00,
2013-01-25 20:34:00,19.3,17.1,28.12,SE,135,1.0,6.0,91,0.00,,,0.00,Weather View 32 v70,2013-01-26 01:34:00,
2013-01-25 20:39:00,19.3,17.1,28.13,SE,135,2.0,6.0,91,0.00,,,0.00,Weather View 32 v70,2013-01-26 01:39:00,
2013-01-25 20:44:00,19.4,17.2,28.13,SE,135,2.0,5.0,91,0.00,,,0.00,Weather View 32 v70,2013-01-26 01:44:00,
2013-01-25 20:49:00,19.4,17.2,28.13,SE,135,1.0,5.0,91,0.00,,,0.00,Weather View 32 v70,2013-01-26 01:49:00,
2013-01-25 20:54:00,19.4,17.2,28.13,SE,135,1.0,5.0,91,0.00,,,0.00,Weather View 32 v70,2013-01-26 01:54:00,
2013-01-25 20:59:00,19.5,17.6,28.12,SE,135,1.0,5.0,92,0.00,,,0.00,Weather View 32 v70,2013-01-26 01:59:00,
2013-01-25 21:04:00,19.5,17.6,28.12,SE,135,2.0,4.0,92,0.00,,,0.00,Weather View 32 v70,2013-01-26 02:04:00,
2013-01-25 21:09:00,19.5,17.3,28.13,SE,135,2.0,4.0,91,0.00,,,0.00,Weather View 32 v70,2013-01-26 02:09:00,
2013-01-25 21:14:00,19.5,17.3,28.13,SE,135,2.0,4.0,91,0.00,,,0.00,Weather View 32 v70,2013-01-26 02:14:00,
2013-01-25 21:19:00,19.4,17.2,28.13,SE,135,0.0,4.0,91,0.00,,,0.00,Weather View 32 v70,2013-01-26 02:19:00,
2013-01-25 21:24:00,19.4,17.2,28.13,SE,135,2.0,4.0,91,0.00,,,0.00,Weather View 32 v70,2013-01-26 02:24:00,
2013-01-25 21:29:00,19.5,17.3,28.13,SE,135,2.0,4.0,91,0.00,,,0.00,Weather View 32 v70,2013-01-26 02:29:00,
2013-01-25 21:34:00,19.5,17.3,28.13,SE,135,1.0,2.0,91,0.00,,,0.00,Weather View 32 v70,2013-01-26 02:34:00,
2013-01-25 21:39:00,19.5,17.6,28.13,SE,135,2.0,2.0,92,0.00,,,0.00,Weather View 32 v70,2013-01-26 02:39:00,
2013-01-25 21:44:00,19.5,17.6,28.13,SE,135,2.0,2.0,92,0.00,,,0.00,Weather View 32 v70,2013-01-26 02:44:00,
2013-01-25 21:49:00,19.6,17.7,28.13,SE,135,2.0,2.0,92,0.00,,,0.00,Weather View 32 v70,2013-01-26 02:49:00,
2013-01-25 21:54:00,19.7,17.8,28.13,SE,135,2.0,2.0,92,0.00,,,0.00,Weather View 32 v70,2013-01-26 02:54:00,
2013-01-25 21:59:00,19.9,18.0,28.13,SE,135,2.0,2.0,92,0.00,,,0.00,Weather View 32 v70,2013-01-26 02:59:00,
2013-01-25 22:04:00,19.9,17.7,28.13,SE,135,2.0,2.0,91,0.00,,,0.00,Weather View 32 v70,2013-01-26 03:04:00,
2013-01-25 22:09:00,19.9,17.7,28.13,SE,135,2.0,2.0,91,0.00,,,0.00,Weather View 32 v70,2013-01-26 03:09:00,
2013-01-25 22:14:00,20.0,17.8,28.12,SE,135,2.0,2.0,91,0.00,,,0.00,Weather View 32 v70,2013-01-26 03:14:00,
2013-01-25 22:19:00,20.1,17.9,28.12,East,90,2.0,3.0,91,0.00,,,0.00,Weather View 32 v70,2013-01-26 03:19:00,
2013-01-25 22:24:00,20.1,17.9,28.13,ESE,112,2.0,4.0,91,0.00,,,0.00,Weather View 32 v70,2013-01-26 03:24:00,
2013-01-25 22:29:00,20.1,17.9,28.13,ESE,112,1.0,4.0,91,0.00,,,0.00,Weather View 32 v70,2013-01-26 03:29:00,
2013-01-25 22:34:00,20.1,17.9,28.13,ESE,112,1.0,4.0,91,0.00,,,0.00,Weather View 32 v70,2013-01-26 03:34:00,
2013-01-25 22:39:00,20.1,17.9,28.13,ESE,112,0.0,4.0,91,0.00,,,0.00,Weather View 32 v70,2013-01-26 03:39:00,
2013-01-25 22:44:00,20.1,17.9,28.12,ESE,112,2.0,4.0,91,0.00,,,0.00,Weather View 32 v70,2013-01-26 03:44:00,
2013-01-25 22:49:00,20.1,17.9,28.13,ESE,112,2.0,4.0,91,0.00,,,0.00,Weather View 32 v70,2013-01-26 03:49:00,
2013-01-25 22:54:00,20.1,17.9,28.13,ENE,67,2.0,4.0,91,0.00,,,0.00,Weather View 32 v70,2013-01-26 03:54:00,
2013-01-25 22:59:00,20.1,17.9,28.13,ENE,67,0.0,4.0,91,0.00,,,0.00,Weather View 32 v70,2013-01-26 03:59:00,
2013-01-25 23:04:00,20.1,17.9,28.13,NE,45,1.0,4.0,91,0.00,,,0.00,Weather View 32 v70,2013-01-26 04:04:00,
2013-01-25 23:09:00,20.1,17.9,28.13,NE,45,0.0,4.0,91,0.00,,,0.00,Weather View 32 v70,2013-01-26 04:09:00,
2013-01-25 23:14:00,20.0,17.8,28.13,NE,45,0.0,4.0,91,0.00,,,0.00,Weather View 32 v70,2013-01-26 04:14:00,
2013-01-25 23:19:00,19.9,18.0,28.14,NE,45,0.0,4.0,92,0.00,,,0.00,Weather View 32 v70,2013-01-26 04:19:00,
2013-01-25 23:25:00,19.9,18.0,28.14,NE,45,1.0,4.0,92,0.00,,,0.00,Weather View 32 v70,2013-01-26 04:25:00,
2013-01-25 23:30:00,19.9,18.2,28.13,NNE,22,0.0,4.0,93,0.00,,,0.00,Weather View 32 v70,2013-01-26 04:30:00,
2013-01-25 23:35:00,19.9,18.2,28.14,NNE,22,1.0,4.0,93,0.00,,,0.00,Weather View 32 v70,2013-01-26 04:35:00,
2013-01-25 23:40:00,19.8,18.1,28.13,North,360,2.0,4.0,93,0.00,,,0.00,Weather View 32 v70,2013-01-26 04:40:00,
2013-01-25 23:45:00,19.6,17.9,28.13,North,360,0.0,4.0,93,0.00,,,0.00,Weather View 32 v70,2013-01-26 04:45:00,
2013-01-25 23:50:00,19.5,17.8,28.14,North,360,2.0,4.0,93,0.00,,,0.00,Weather View 32 v70,2013-01-26 04:50:00,
2013-01-25 23:55:00,19.4,17.7,28.14,East,90,1.0,4.0,93,0.00,,,0.00,Weather View 32 v70,2013-01-26 04:55:00,